createdAt,value
2018-05-31T00:01:29.374Z,25.71
2018-05-31T00:03:56.965Z,25.67
2018-05-31T00:06:24.602Z,25.67
2018-05-31T00:08:52.180Z,25.65
2018-05-31T00:11:19.833Z,25.62
2018-05-31T00:13:47.457Z,25.59
2018-05-31T00:16:15.123Z,25.57
2018-05-31T00:18:43.562Z,25.53
2018-05-31T00:21:11.561Z,25.45
2018-05-31T00:23:39.226Z,25.50
2018-05-31T00:26:06.908Z,25.49
2018-05-31T00:28:34.569Z,25.46
2018-05-31T00:31:02.195Z,25.42
2018-05-31T00:33:29.746Z,25.37
2018-05-31T00:35:57.397Z,25.27
2018-05-31T00:38:24.999Z,25.24
2018-05-31T00:40:52.673Z,25.16
2018-05-31T00:43:20.251Z,25.14
2018-05-31T00:45:47.881Z,25.13
2018-05-31T00:48:15.446Z,25.12
2018-05-31T00:50:43.073Z,25.12
2018-05-31T00:53:10.697Z,25.10
2018-05-31T00:55:50.080Z,25.07
2018-05-31T00:58:17.745Z,25.06
2018-05-31T01:00:45.388Z,25.05
2018-05-31T01:03:12.980Z,25.06
2018-05-31T01:05:40.570Z,25.07
2018-05-31T01:08:08.147Z,25.07
2018-05-31T01:10:35.803Z,25.06
2018-05-31T01:13:03.410Z,25.03
2018-05-31T01:15:31.026Z,25.01
2018-05-31T01:17:58.573Z,24.95
2018-05-31T01:20:26.208Z,24.92
2018-05-31T01:22:53.750Z,24.87
2018-05-31T01:25:21.325Z,24.84
2018-05-31T01:27:48.917Z,24.82
2018-05-31T01:30:16.537Z,24.78
2018-05-31T01:32:44.098Z,24.74
2018-05-31T01:35:11.654Z,24.72
2018-05-31T01:37:39.249Z,24.71
2018-05-31T01:40:06.823Z,24.69
2018-05-31T01:42:34.430Z,24.69
2018-05-31T01:45:02.006Z,24.70
2018-05-31T01:47:29.586Z,24.65
2018-05-31T01:49:57.503Z,24.65
2018-05-31T01:52:25.131Z,24.63
2018-05-31T01:54:52.774Z,24.62
2018-05-31T01:57:20.373Z,24.63
2018-05-31T01:59:47.984Z,24.62
2018-05-31T02:02:15.566Z,24.61
2018-05-31T02:04:43.157Z,24.58
2018-05-31T02:07:10.765Z,24.57
2018-05-31T02:09:38.369Z,24.55
2018-05-31T02:12:05.996Z,24.56
2018-05-31T02:14:33.610Z,24.54
2018-05-31T02:17:01.260Z,24.53
2018-05-31T02:19:28.840Z,24.54
2018-05-31T02:21:56.452Z,24.55
2018-05-31T02:24:24.071Z,24.55
2018-05-31T02:26:51.715Z,24.52
2018-05-31T02:29:19.370Z,24.51
2018-05-31T02:31:47.040Z,24.48
2018-05-31T02:34:14.646Z,24.46
2018-05-31T02:36:42.239Z,24.46
2018-05-31T02:39:09.847Z,24.45
2018-05-31T02:41:37.436Z,24.44
2018-05-31T02:44:05.036Z,24.44
2018-05-31T02:46:32.646Z,24.44
2018-05-31T02:49:00.250Z,24.43
2018-05-31T02:51:27.836Z,24.41
2018-05-31T02:53:55.477Z,24.42
2018-05-31T02:56:23.088Z,24.41
2018-05-31T02:58:50.689Z,24.42
2018-05-31T03:01:18.292Z,24.42
2018-05-31T03:03:45.904Z,24.43
2018-05-31T03:06:13.522Z,24.41
2018-05-31T03:08:42.063Z,24.37
2018-05-31T03:11:09.696Z,24.38
2018-05-31T03:13:37.273Z,24.40
2018-05-31T03:16:04.838Z,24.40
2018-05-31T03:18:32.425Z,24.37
2018-05-31T03:21:00.055Z,24.37
2018-05-31T03:23:27.719Z,24.37
2018-05-31T03:25:55.353Z,24.37
2018-05-31T03:28:22.990Z,24.37
2018-05-31T03:30:50.654Z,24.36
2018-05-31T03:33:18.279Z,24.33
2018-05-31T03:35:45.893Z,24.31
2018-05-31T03:38:13.512Z,24.26
2018-05-31T03:40:41.633Z,24.25
2018-05-31T03:43:09.244Z,24.25
2018-05-31T03:45:36.834Z,24.23
2018-05-31T03:48:04.477Z,24.20
2018-05-31T03:50:32.101Z,24.19
2018-05-31T03:52:59.729Z,24.16
2018-05-31T03:55:27.346Z,24.23
2018-05-31T03:57:54.958Z,24.18
2018-05-31T04:00:22.571Z,24.19
2018-05-31T04:02:50.351Z,24.20
2018-05-31T04:05:17.992Z,24.23
2018-05-31T04:07:45.626Z,24.28
2018-05-31T04:10:13.177Z,24.31
2018-05-31T04:12:40.871Z,24.35
2018-05-31T04:15:09.329Z,24.39
2018-05-31T04:17:36.918Z,24.43
2018-05-31T04:20:04.557Z,24.50
2018-05-31T04:22:32.198Z,24.55
2018-05-31T04:24:59.802Z,24.59
2018-05-31T04:27:27.377Z,24.60
2018-05-31T04:29:54.993Z,24.57
2018-05-31T04:32:22.594Z,24.66
2018-05-31T04:34:50.260Z,24.74
2018-05-31T04:37:17.890Z,24.81
2018-05-31T04:39:45.607Z,24.89
2018-05-31T04:42:13.253Z,24.97
2018-05-31T04:44:40.873Z,25.05
2018-05-31T04:47:08.471Z,25.11
2018-05-31T04:49:36.144Z,25.19
2018-05-31T04:52:03.800Z,25.28
2018-05-31T04:54:31.419Z,25.30
2018-05-31T04:56:58.972Z,25.47
2018-05-31T04:59:26.685Z,25.56
2018-05-31T05:01:54.343Z,25.64
2018-05-31T05:04:21.924Z,25.67
2018-05-31T05:06:49.494Z,25.80
2018-05-31T05:09:17.140Z,25.88
2018-05-31T05:11:44.742Z,25.83
2018-05-31T05:14:12.340Z,25.99
2018-05-31T05:16:39.938Z,26.02
2018-05-31T05:19:07.575Z,26.08
2018-05-31T05:21:35.208Z,26.12
2018-05-31T05:24:02.813Z,26.18
2018-05-31T05:26:30.461Z,26.26
2018-05-31T05:28:58.012Z,26.35
2018-05-31T05:31:25.660Z,26.45
2018-05-31T05:33:53.305Z,26.51
2018-05-31T05:36:20.868Z,26.56
2018-05-31T05:38:49.030Z,26.58
2018-05-31T05:41:16.614Z,26.62
2018-05-31T05:43:44.227Z,26.73
2018-05-31T05:46:11.793Z,26.93
2018-05-31T05:48:39.396Z,27.23
2018-05-31T05:51:06.952Z,27.62
2018-05-31T05:53:34.514Z,28.09
2018-05-31T05:56:02.062Z,28.52
2018-05-31T05:58:29.642Z,29.11
2018-05-31T06:00:57.193Z,29.61
2018-05-31T06:03:24.738Z,30.09
2018-05-31T06:05:52.297Z,30.60
2018-05-31T06:08:19.842Z,31.08
2018-05-31T06:10:47.420Z,31.58
2018-05-31T06:13:14.960Z,31.93
2018-05-31T06:15:42.561Z,32.11
2018-05-31T06:18:10.218Z,32.18
2018-05-31T06:20:37.803Z,32.25
2018-05-31T06:23:05.360Z,32.32
2018-05-31T06:25:32.930Z,32.46
2018-05-31T06:28:00.483Z,32.77
2018-05-31T06:30:28.053Z,33.22
2018-05-31T06:32:55.587Z,33.58
2018-05-31T06:35:23.228Z,34.01
2018-05-31T06:40:22.811Z,34.83
2018-05-31T06:42:50.965Z,35.24
2018-05-31T06:45:18.599Z,35.68
2018-05-31T06:47:46.250Z,36.04
2018-05-31T06:50:13.927Z,36.37
2018-05-31T06:52:41.465Z,36.73
2018-05-31T06:55:09.032Z,37.02
2018-05-31T06:57:36.574Z,37.13
2018-05-31T07:00:04.116Z,37.12
2018-05-31T07:02:31.681Z,36.91
2018-05-31T07:04:59.323Z,36.53
2018-05-31T07:07:26.999Z,36.08
2018-05-31T07:09:54.902Z,35.61
2018-05-31T07:12:22.488Z,35.24
2018-05-31T07:14:50.117Z,34.88
2018-05-31T07:17:17.647Z,34.60
2018-05-31T07:19:45.213Z,34.32
2018-05-31T07:22:12.764Z,34.11
2018-05-31T07:24:40.374Z,33.96
2018-05-31T07:27:07.990Z,33.85
2018-05-31T07:29:35.569Z,33.73
2018-05-31T07:32:03.125Z,33.75
2018-05-31T07:34:30.671Z,34.21
2018-05-31T07:36:58.237Z,35.02
2018-05-31T07:39:25.786Z,35.97
2018-05-31T07:41:53.381Z,36.74
2018-05-31T07:44:20.989Z,37.05
2018-05-31T07:46:48.530Z,37.41
2018-05-31T07:49:16.111Z,37.69
2018-05-31T07:51:43.743Z,37.84
2018-05-31T07:54:11.363Z,37.88
2018-05-31T07:56:38.919Z,37.83
2018-05-31T07:59:06.514Z,37.80
2018-05-31T08:01:34.105Z,37.88
2018-05-31T08:04:01.697Z,38.18
2018-05-31T08:06:29.252Z,38.72
2018-05-31T08:08:56.817Z,38.97
2018-05-31T08:11:24.396Z,38.79
2018-05-31T08:13:51.936Z,38.47
2018-05-31T08:16:19.530Z,38.10
2018-05-31T08:18:47.109Z,37.84
2018-05-31T08:21:14.713Z,37.63
2018-05-31T08:23:42.312Z,37.46
2018-05-31T08:26:09.935Z,37.34
2018-05-31T08:28:37.535Z,37.28
2018-05-31T08:31:05.141Z,37.25
2018-05-31T08:33:32.689Z,37.26
2018-05-31T08:36:00.254Z,37.23
2018-05-31T08:38:27.829Z,37.22
2018-05-31T08:40:55.449Z,37.19
2018-05-31T08:43:23.011Z,37.11
2018-05-31T08:45:50.601Z,37.04
2018-05-31T08:48:18.188Z,36.98
2018-05-31T08:50:45.778Z,36.90
2018-05-31T08:53:13.390Z,36.80
2018-05-31T08:55:41.015Z,36.65
2018-05-31T08:58:08.707Z,36.56
2018-05-31T09:00:36.315Z,36.54
2018-05-31T09:03:03.886Z,36.52
2018-05-31T09:05:31.433Z,36.48
2018-05-31T09:07:59.031Z,36.44
2018-05-31T09:10:26.638Z,36.42
2018-05-31T09:12:54.206Z,36.39
2018-05-31T09:15:21.788Z,36.33
2018-05-31T09:17:49.414Z,36.29
2018-05-31T09:20:16.997Z,36.28
2018-05-31T09:22:44.581Z,36.30
2018-05-31T09:25:12.212Z,36.24
2018-05-31T09:27:39.767Z,36.38
2018-05-31T09:30:07.385Z,36.41
2018-05-31T09:32:34.997Z,36.56
2018-05-31T09:35:02.660Z,36.93
2018-05-31T09:37:30.212Z,37.24
2018-05-31T09:39:57.765Z,37.75
2018-05-31T09:42:25.317Z,37.91
2018-05-31T09:44:53.029Z,37.97
2018-05-31T09:47:20.708Z,37.98
2018-05-31T09:49:48.278Z,37.93
2018-05-31T09:52:15.842Z,37.98
2018-05-31T09:54:43.433Z,38.11
2018-05-31T09:57:11.065Z,38.30
2018-05-31T09:59:38.741Z,38.92
2018-05-31T10:02:06.308Z,39.51
2018-05-31T10:04:33.869Z,40.42
2018-05-31T10:07:02.034Z,40.81
2018-05-31T10:09:29.616Z,40.99
2018-05-31T10:11:57.210Z,40.97
2018-05-31T10:14:24.812Z,41.14
2018-05-31T10:16:52.426Z,41.46
2018-05-31T10:19:19.998Z,41.52
2018-05-31T10:21:47.575Z,41.45
2018-05-31T10:24:15.160Z,41.55
2018-05-31T10:26:42.754Z,42.62
2018-05-31T10:29:10.295Z,43.69
2018-05-31T10:31:37.897Z,43.38
2018-05-31T10:34:07.400Z,42.80
2018-05-31T10:36:36.465Z,42.94
2018-05-31T10:39:05.205Z,43.43
2018-05-31T10:41:32.814Z,43.90
2018-05-31T10:44:01.018Z,44.82
2018-05-31T10:46:28.699Z,45.03
2018-05-31T10:48:56.271Z,44.61
2018-05-31T10:51:23.969Z,44.08
2018-05-31T10:53:51.609Z,43.22
2018-05-31T10:56:19.164Z,42.51
2018-05-31T10:58:46.734Z,42.39
2018-05-31T11:01:14.254Z,43.11
2018-05-31T11:03:41.872Z,44.28
2018-05-31T11:06:09.397Z,45.26
2018-05-31T11:08:36.976Z,46.16
2018-05-31T11:11:04.528Z,46.78
2018-05-31T11:13:32.116Z,47.16
2018-05-31T11:15:59.704Z,47.24
2018-05-31T11:18:27.247Z,47.24
2018-05-31T11:20:54.796Z,47.15
2018-05-31T11:23:22.344Z,46.72
2018-05-31T11:25:49.936Z,46.12
2018-05-31T11:28:17.554Z,45.34
2018-05-31T11:30:45.113Z,44.52
2018-05-31T11:33:12.715Z,43.70
2018-05-31T11:35:40.331Z,42.99
2018-05-31T11:38:07.892Z,42.36
2018-05-31T11:40:35.514Z,41.82
2018-05-31T11:43:03.139Z,41.45
2018-05-31T11:45:30.737Z,41.15
2018-05-31T11:47:58.325Z,40.91
2018-05-31T11:50:25.889Z,40.69
2018-05-31T11:52:53.429Z,40.56
2018-05-31T11:55:21.030Z,40.39
2018-05-31T11:57:48.610Z,40.24
2018-05-31T12:00:16.243Z,40.16
2018-05-31T12:02:43.841Z,40.17
2018-05-31T12:05:11.424Z,40.00
2018-05-31T12:07:38.996Z,39.61
2018-05-31T12:10:06.663Z,39.20
2018-05-31T12:12:34.259Z,38.82
2018-05-31T12:15:01.834Z,38.50
2018-05-31T12:17:29.476Z,38.20
2018-05-31T12:19:57.077Z,37.87
2018-05-31T12:22:24.622Z,37.58
2018-05-31T12:24:52.207Z,37.33
2018-05-31T12:27:19.853Z,37.16
2018-05-31T12:29:47.422Z,37.05
2018-05-31T12:32:15.043Z,36.93
2018-05-31T12:34:42.646Z,36.83
2018-05-31T12:37:10.163Z,36.80
2018-05-31T12:39:38.926Z,36.63
2018-05-31T12:42:06.557Z,36.82
2018-05-31T12:44:34.198Z,36.89
2018-05-31T12:47:01.790Z,37.00
2018-05-31T12:49:29.421Z,37.11
2018-05-31T12:51:57.033Z,37.23
2018-05-31T12:54:24.601Z,37.31
2018-05-31T12:56:52.180Z,37.44
2018-05-31T12:59:19.745Z,37.57
2018-05-31T13:01:47.563Z,37.58
2018-05-31T13:04:15.158Z,37.51
2018-05-31T13:06:42.757Z,37.44
2018-05-31T13:09:11.238Z,37.39
2018-05-31T13:11:38.830Z,37.35
2018-05-31T13:14:06.357Z,37.37
2018-05-31T13:16:33.941Z,37.39
2018-05-31T13:19:01.597Z,37.40
2018-05-31T13:21:29.207Z,37.44
2018-05-31T13:23:56.774Z,37.51
2018-05-31T13:26:24.452Z,37.64
2018-05-31T13:28:52.026Z,37.78
2018-05-31T13:31:19.657Z,37.91
2018-05-31T13:33:47.198Z,37.91
2018-05-31T13:36:14.827Z,37.85
2018-05-31T13:38:42.406Z,37.85
2018-05-31T13:41:10.136Z,37.75
2018-05-31T13:43:37.724Z,37.64
2018-05-31T13:46:05.407Z,37.51
2018-05-31T13:48:33.071Z,37.42
2018-05-31T13:51:00.722Z,37.39
2018-05-31T13:53:28.310Z,37.41
2018-05-31T13:55:55.890Z,37.43
2018-05-31T13:58:23.511Z,37.37
2018-05-31T14:00:51.110Z,37.20
2018-05-31T14:03:18.797Z,37.02
2018-05-31T14:05:46.453Z,36.96
2018-05-31T14:08:14.159Z,36.96
2018-05-31T14:10:41.806Z,36.94
2018-05-31T14:13:09.565Z,36.86
2018-05-31T14:15:37.297Z,36.86
2018-05-31T14:18:05.066Z,36.87
2018-05-31T14:20:32.832Z,35.34
2018-05-31T14:23:00.430Z,36.93
2018-05-31T14:25:28.567Z,36.94
2018-05-31T14:27:56.253Z,36.94
2018-05-31T14:30:23.779Z,36.85
2018-05-31T14:32:51.574Z,36.80
2018-05-31T14:35:19.210Z,36.78
2018-05-31T14:37:46.996Z,36.68
2018-05-31T14:40:14.676Z,36.66
2018-05-31T14:42:42.312Z,36.62
2018-05-31T14:45:09.939Z,36.61
2018-05-31T14:47:37.535Z,36.51
2018-05-31T14:50:05.123Z,36.44
2018-05-31T14:52:36.473Z,36.31
2018-05-31T14:55:04.059Z,36.19
2018-05-31T14:57:31.652Z,36.13
2018-05-31T14:59:59.322Z,36.09
2018-05-31T15:02:26.954Z,36.08
2018-05-31T15:04:54.532Z,36.07
2018-05-31T15:07:22.115Z,36.07
2018-05-31T15:09:49.711Z,36.10
2018-05-31T15:12:17.268Z,36.13
2018-05-31T15:14:44.845Z,36.13
2018-05-31T15:17:12.479Z,36.07
2018-05-31T15:19:40.056Z,36.06
2018-05-31T15:22:07.611Z,35.99
2018-05-31T15:24:35.133Z,35.94
2018-05-31T15:27:02.694Z,35.91
2018-05-31T15:29:30.294Z,35.83
2018-05-31T15:31:57.889Z,35.72
2018-05-31T15:34:25.446Z,35.59
2018-05-31T15:36:53.029Z,35.50
2018-05-31T15:39:20.603Z,35.48
2018-05-31T15:41:48.162Z,35.49
2018-05-31T15:44:15.754Z,35.49
2018-05-31T15:46:43.341Z,35.51
2018-05-31T15:49:10.917Z,35.61
2018-05-31T15:51:38.472Z,35.73
2018-05-31T15:54:06.079Z,35.83
2018-05-31T15:56:33.662Z,35.94
2018-05-31T15:59:01.275Z,36.03
2018-05-31T16:01:28.819Z,36.14
2018-05-31T16:03:56.401Z,36.19
2018-05-31T16:06:23.965Z,36.22
2018-05-31T16:08:51.526Z,36.13
2018-05-31T16:11:19.161Z,36.11
2018-05-31T16:13:46.775Z,36.10
2018-05-31T16:16:14.367Z,36.09
2018-05-31T16:18:41.944Z,36.07
2018-05-31T16:21:09.914Z,36.07
2018-05-31T16:23:38.738Z,36.01
2018-05-31T16:26:06.400Z,35.94
2018-05-31T16:28:34.057Z,35.91
2018-05-31T16:31:01.667Z,35.94
2018-05-31T16:33:29.553Z,35.99
2018-05-31T16:35:57.199Z,35.99
2018-05-31T16:38:24.795Z,36.02
2018-05-31T16:40:52.420Z,36.04
2018-05-31T16:43:20.153Z,36.13
2018-05-31T16:45:48.728Z,36.16
2018-05-31T16:48:16.384Z,36.17
2018-05-31T16:50:43.972Z,36.13
2018-05-31T16:53:12.026Z,36.17
2018-05-31T16:55:39.610Z,36.18
2018-05-31T16:58:07.243Z,36.22
2018-05-31T17:00:34.771Z,36.20
2018-05-31T17:03:02.390Z,36.12
2018-05-31T17:05:30.023Z,36.07
2018-05-31T17:07:57.741Z,36.03
2018-05-31T17:10:25.327Z,35.97
2018-05-31T17:12:52.899Z,35.90
2018-05-31T17:15:20.461Z,35.92
2018-05-31T17:17:48.044Z,35.87
2018-05-31T17:20:15.626Z,35.84
2018-05-31T17:22:43.216Z,35.77
2018-05-31T17:25:10.796Z,35.72
2018-05-31T17:27:38.358Z,35.65
2018-05-31T17:30:05.988Z,35.56
2018-05-31T17:32:33.593Z,35.47
2018-05-31T17:35:01.161Z,35.40
2018-05-31T17:37:28.716Z,35.30
2018-05-31T17:39:56.332Z,35.21
2018-05-31T17:42:23.920Z,35.12
2018-05-31T17:44:51.534Z,35.02
2018-05-31T17:47:19.092Z,34.88
2018-05-31T17:49:46.677Z,34.75
2018-05-31T17:52:14.231Z,34.61
2018-05-31T17:54:41.823Z,34.45
2018-05-31T17:57:09.388Z,34.37
2018-05-31T17:59:37.006Z,34.32
2018-05-31T18:02:04.571Z,34.27
2018-05-31T18:04:32.131Z,34.26
2018-05-31T18:06:59.905Z,34.25
2018-05-31T18:09:27.485Z,34.16
2018-05-31T18:11:55.053Z,34.04
2018-05-31T18:14:22.697Z,34.01
2018-05-31T18:16:50.221Z,34.07
2018-05-31T18:19:18.805Z,34.16
2018-05-31T18:21:46.354Z,34.21
2018-05-31T18:24:13.941Z,34.07
2018-05-31T18:26:41.503Z,33.88
2018-05-31T18:29:09.093Z,33.68
2018-05-31T18:31:36.693Z,33.48
2018-05-31T18:34:04.234Z,33.34
2018-05-31T18:36:31.829Z,33.21
2018-05-31T18:38:59.419Z,33.13
2018-05-31T18:41:26.983Z,32.89
2018-05-31T18:43:54.537Z,32.73
2018-05-31T18:46:22.116Z,32.58
2018-05-31T18:48:49.683Z,32.48
2018-05-31T18:51:20.277Z,32.29
2018-05-31T18:53:47.832Z,32.14
2018-05-31T18:56:15.415Z,32.01
2018-05-31T18:58:42.974Z,31.74
2018-05-31T19:01:10.626Z,31.78
2018-05-31T19:03:38.169Z,31.67
2018-05-31T19:06:05.796Z,31.54
2018-05-31T19:08:33.363Z,31.45
2018-05-31T19:11:01.002Z,31.36
2018-05-31T19:13:34.181Z,31.25
2018-05-31T19:16:01.768Z,31.09
2018-05-31T19:18:34.866Z,30.96
2018-05-31T19:21:02.487Z,30.84
2018-05-31T19:23:30.084Z,30.78
2018-05-31T19:25:57.696Z,30.71
2018-05-31T19:28:25.287Z,30.63
2018-05-31T19:30:58.406Z,30.57
2018-05-31T19:33:25.989Z,30.47
2018-05-31T19:35:59.198Z,30.40
2018-05-31T19:38:26.753Z,30.33
2018-05-31T19:40:54.351Z,30.29
2018-05-31T19:43:27.551Z,30.26
2018-05-31T19:45:55.138Z,30.21
2018-05-31T19:48:22.724Z,30.16
2018-05-31T19:50:50.316Z,30.12
2018-05-31T19:53:23.513Z,30.07
2018-05-31T19:55:51.174Z,29.98
2018-05-31T19:58:24.362Z,29.92
2018-05-31T20:00:57.551Z,29.83
2018-05-31T20:03:30.665Z,29.73
2018-05-31T20:05:58.267Z,29.65
2018-05-31T20:08:25.828Z,29.60
2018-05-31T20:10:53.424Z,29.55
2018-05-31T20:13:21.078Z,29.54
2018-05-31T20:15:48.716Z,29.49
2018-05-31T20:18:16.411Z,29.43
2018-05-31T20:20:43.961Z,29.34
2018-05-31T20:23:11.597Z,29.27
2018-05-31T20:25:39.219Z,29.21
2018-05-31T20:28:06.834Z,29.13
2018-05-31T20:30:34.413Z,29.07
2018-05-31T20:33:01.999Z,29.02
2018-05-31T20:35:29.629Z,28.96
2018-05-31T20:37:57.626Z,28.90
2018-05-31T20:40:25.215Z,28.84
2018-05-31T20:42:52.797Z,28.81
2018-05-31T20:45:20.435Z,28.78
2018-05-31T20:47:47.997Z,28.75
2018-05-31T20:50:15.584Z,28.74
2018-05-31T20:52:43.195Z,28.71
2018-05-31T20:55:10.787Z,28.68
2018-05-31T20:57:38.474Z,28.65
2018-05-31T21:00:06.097Z,28.61
2018-05-31T21:02:34.309Z,28.55
2018-05-31T21:05:01.886Z,28.51
2018-05-31T21:07:29.534Z,28.46
2018-05-31T21:09:57.133Z,28.44
2018-05-31T21:12:24.719Z,28.40
2018-05-31T21:14:52.343Z,28.35
2018-05-31T21:17:19.944Z,28.31
2018-05-31T21:19:47.535Z,28.28
2018-05-31T21:22:15.096Z,28.24
2018-05-31T21:24:42.670Z,28.22
2018-05-31T21:27:10.343Z,28.18
2018-05-31T21:29:37.924Z,28.14
2018-05-31T21:32:05.504Z,28.09
2018-05-31T21:34:33.078Z,28.03
2018-05-31T21:37:00.746Z,27.96
2018-05-31T21:39:28.304Z,27.88
2018-05-31T21:41:55.890Z,27.79
2018-05-31T21:44:23.453Z,27.73
2018-05-31T21:46:51.038Z,27.69
2018-05-31T21:49:18.636Z,27.66
2018-05-31T21:51:46.170Z,27.62
2018-05-31T21:54:13.763Z,27.58
2018-05-31T21:56:42.618Z,27.55
2018-05-31T21:59:10.208Z,27.50
2018-05-31T22:01:37.826Z,27.43
2018-05-31T22:04:05.416Z,27.40
2018-05-31T22:06:33.356Z,27.37
2018-05-31T22:09:00.942Z,27.36
2018-05-31T22:11:28.727Z,27.35
2018-05-31T22:13:56.290Z,27.33
2018-05-31T22:16:23.966Z,27.31
2018-05-31T22:18:51.584Z,27.28
2018-05-31T22:21:19.209Z,27.27
2018-05-31T22:23:47.070Z,27.24
2018-05-31T22:26:14.645Z,27.22
2018-05-31T22:28:42.225Z,27.15
2018-05-31T22:31:10.280Z,27.08
2018-05-31T22:33:37.949Z,27.03
2018-05-31T22:36:05.545Z,26.96
2018-05-31T22:38:33.163Z,26.91
2018-05-31T22:41:00.730Z,26.88
2018-05-31T22:43:28.354Z,26.88
2018-05-31T22:45:55.980Z,26.87
2018-05-31T22:48:23.567Z,26.87
2018-05-31T22:50:51.197Z,26.84
2018-05-31T22:53:18.856Z,26.81
2018-05-31T22:55:46.476Z,26.81
2018-05-31T22:58:14.071Z,26.81
2018-05-31T23:00:41.670Z,26.82
2018-05-31T23:03:09.209Z,26.81
2018-05-31T23:05:37.426Z,26.79
2018-05-31T23:08:05.112Z,26.75
2018-05-31T23:10:32.721Z,26.71
2018-05-31T23:13:00.303Z,26.68
2018-05-31T23:15:27.880Z,26.65
2018-05-31T23:17:55.996Z,26.63
2018-05-31T23:20:23.596Z,26.59
2018-05-31T23:22:51.150Z,26.58
2018-05-31T23:25:18.711Z,26.55
2018-05-31T23:27:46.361Z,26.53
2018-05-31T23:30:14.747Z,26.48
2018-05-31T23:32:42.340Z,26.44
2018-05-31T23:35:09.985Z,26.40
2018-05-31T23:37:37.587Z,26.38
2018-05-31T23:40:05.177Z,26.34
2018-05-31T23:42:32.717Z,26.31
2018-05-31T23:45:00.299Z,26.30
2018-05-31T23:47:27.877Z,26.29
2018-05-31T23:49:55.457Z,26.27
2018-05-31T23:52:23.036Z,26.25
2018-05-31T23:54:50.615Z,26.22
2018-05-31T23:57:18.192Z,26.19
2018-05-31T23:59:45.808Z,26.10
